createdAt,value
2018-07-08T00:02:04.625Z,15.90
2018-07-08T00:04:37.264Z,15.60
2018-07-08T00:07:06.020Z,15.90
2018-07-08T00:09:34.773Z,16.60
2018-07-08T00:12:03.626Z,15.90
2018-07-08T00:14:32.348Z,16.20
2018-07-08T00:17:01.103Z,16.20
2018-07-08T00:19:31.484Z,16.20
2018-07-08T00:22:00.247Z,16.40
2018-07-08T00:24:29.004Z,16.40
2018-07-08T00:26:57.864Z,16.50
2018-07-08T00:29:29.184Z,16.70
2018-07-08T00:31:57.895Z,16.80
2018-07-08T00:34:26.551Z,16.50
2018-07-08T00:36:55.238Z,16.30
2018-07-08T00:39:26.588Z,16.70
2018-07-08T00:41:55.981Z,17.60
2018-07-08T00:44:24.699Z,17.20
2018-07-08T00:46:53.425Z,17.60
2018-07-08T00:49:22.171Z,17.40
2018-07-08T00:51:53.536Z,17.90
2018-07-08T00:54:22.309Z,17.90
2018-07-08T00:56:52.788Z,18.20
2018-07-08T00:59:21.522Z,18.40
2018-07-08T01:01:50.210Z,18.60
2018-07-08T01:04:18.915Z,18.70
2018-07-08T01:06:47.640Z,18.90
2018-07-08T01:09:19.313Z,19.20
2018-07-08T01:11:51.198Z,19.20
2018-07-08T01:14:19.892Z,19.50
2018-07-08T01:16:48.577Z,19.60
2018-07-08T01:19:19.337Z,19.70
2018-07-08T01:21:48.084Z,19.20
2018-07-08T01:24:16.901Z,19.40
2018-07-08T01:26:45.629Z,19.70
2018-07-08T01:29:14.344Z,19.80
2018-07-08T01:31:43.041Z,20.50
2018-07-08T01:34:14.368Z,20.30
2018-07-08T01:36:43.120Z,20.30
2018-07-08T01:39:11.849Z,20.90
2018-07-08T01:41:40.534Z,20.70
2018-07-08T01:44:09.264Z,21.20
2018-07-08T01:46:38.009Z,21.30
2018-07-08T01:49:06.732Z,21.30
2018-07-08T01:51:35.441Z,21.20
2018-07-08T01:54:04.236Z,21.40
2018-07-08T01:56:33.045Z,21.60
2018-07-08T01:59:04.532Z,21.80
2018-07-08T02:01:33.331Z,22.20
2018-07-08T02:04:09.545Z,22.00
2018-07-08T02:06:38.269Z,22.00
2018-07-08T02:09:06.947Z,22.40
2018-07-08T02:11:38.281Z,22.60
2018-07-08T02:14:08.582Z,22.40
2018-07-08T02:16:37.257Z,22.60
2018-07-08T02:19:05.989Z,22.90
2018-07-08T02:21:34.815Z,23.10
2018-07-08T02:24:06.413Z,23.30
2018-07-08T02:26:35.193Z,23.80
2018-07-08T02:29:06.850Z,23.70
2018-07-08T02:31:35.612Z,23.70
2018-07-08T02:34:06.381Z,24.40
2018-07-08T02:36:35.138Z,24.30
2018-07-08T02:39:04.355Z,24.40
2018-07-08T02:41:33.193Z,24.70
2018-07-08T02:44:01.944Z,25.30
2018-07-08T02:46:32.260Z,25.30
2018-07-08T02:49:01.188Z,25.80
2018-07-08T02:51:30.705Z,25.90
2018-07-08T02:53:59.444Z,26.10
2018-07-08T02:56:28.201Z,26.30
2018-07-08T02:58:59.777Z,26.30
2018-07-08T03:01:28.466Z,26.90
2018-07-08T03:03:57.192Z,27.20
2018-07-08T03:06:25.857Z,27.60
2018-07-08T03:08:54.565Z,27.70
2018-07-08T03:11:23.224Z,28.10
2018-07-08T03:13:52.105Z,28.30
2018-07-08T03:16:20.815Z,28.10
2018-07-08T03:18:49.497Z,27.90
2018-07-08T03:21:20.454Z,27.90
2018-07-08T03:23:49.958Z,28.90
2018-07-08T03:26:18.665Z,29.30
2018-07-08T03:28:47.370Z,28.90
2018-07-08T03:31:19.282Z,29.30
2018-07-08T03:36:16.384Z,29.30
2018-07-08T03:41:14.964Z,29.30
2018-07-08T03:43:43.692Z,29.50
2018-07-08T03:46:12.422Z,29.70
2018-07-08T03:48:41.164Z,29.30
2018-07-08T03:51:09.861Z,29.20
2018-07-08T03:53:38.663Z,29.30
2018-07-08T03:56:07.702Z,29.40
2018-07-08T03:58:36.621Z,29.00
2018-07-08T04:01:07.800Z,28.60
2018-07-08T04:03:36.505Z,28.70
2018-07-08T04:06:05.328Z,27.90
2018-07-08T04:08:35.882Z,28.00
2018-07-08T04:11:05.974Z,27.70
2018-07-08T04:13:34.702Z,27.30
2018-07-08T04:16:03.434Z,27.10
2018-07-08T04:18:32.161Z,26.60
2018-07-08T04:21:02.501Z,26.60
2018-07-08T04:23:31.881Z,27.00
2018-07-08T04:26:01.135Z,27.10
2018-07-08T04:28:29.814Z,26.50
2018-07-08T04:30:58.586Z,27.50
2018-07-08T04:33:28.286Z,26.70
2018-07-08T04:35:58.313Z,26.00
2018-07-08T04:38:27.021Z,27.10
2018-07-08T04:40:55.793Z,25.80
2018-07-08T04:43:24.508Z,26.20
2018-07-08T04:45:53.177Z,26.40
2018-07-08T04:48:21.862Z,26.10
2018-07-08T04:50:50.549Z,25.40
2018-07-08T04:53:19.219Z,25.50
2018-07-08T04:55:47.954Z,25.30
2018-07-08T04:58:16.657Z,24.70
2018-07-08T05:00:45.405Z,24.30
2018-07-08T05:03:15.144Z,24.10
2018-07-08T05:05:43.780Z,23.60
2018-07-08T05:08:12.799Z,24.00
2018-07-08T05:10:42.514Z,23.70
2018-07-08T05:13:11.204Z,23.90
2018-07-08T05:15:39.914Z,23.50
2018-07-08T05:18:09.667Z,23.10
2018-07-08T05:20:38.332Z,22.60
2018-07-08T05:23:07.024Z,22.60
2018-07-08T05:25:35.814Z,22.80
2018-07-08T05:28:04.608Z,21.70
2018-07-08T05:30:33.320Z,22.10
2018-07-08T05:33:02.012Z,22.10
2018-07-08T05:35:30.706Z,20.70
2018-07-08T05:37:59.437Z,20.40
2018-07-08T05:40:28.137Z,20.20
2018-07-08T05:42:56.821Z,20.30
2018-07-08T05:45:25.784Z,20.40
2018-07-08T05:47:54.512Z,19.90
2018-07-08T05:50:23.374Z,19.80
2018-07-08T05:52:52.056Z,20.00
2018-07-08T05:55:20.728Z,19.50
2018-07-08T05:57:49.820Z,19.60
2018-07-08T06:00:18.557Z,19.60
2018-07-08T06:02:47.224Z,19.80
2018-07-08T06:05:16.673Z,19.70
2018-07-08T06:07:45.309Z,19.10
2018-07-08T06:10:15.123Z,18.90
2018-07-08T06:12:44.252Z,17.60
2018-07-08T06:15:12.998Z,18.10
2018-07-08T06:17:41.743Z,18.00
2018-07-08T06:20:13.192Z,18.00
2018-07-08T06:22:43.210Z,17.40
2018-07-08T06:25:11.905Z,16.70
2018-07-08T06:30:09.044Z,15.50
2018-07-08T06:32:37.721Z,14.60
2018-07-08T06:35:07.412Z,13.70
2018-07-08T06:37:36.105Z,13.40
2018-07-08T06:40:04.853Z,13.30
2018-07-08T06:42:33.574Z,12.90
2018-07-08T06:45:02.265Z,13.00
2018-07-08T06:47:30.988Z,11.00
2018-07-08T06:49:59.774Z,10.30
2018-07-08T06:52:28.437Z,9.40
2018-07-08T06:54:57.620Z,8.00
2018-07-08T06:57:26.345Z,6.00
2018-07-08T06:59:55.530Z,5.90
2018-07-08T07:02:24.439Z,6.70
2018-07-08T07:07:21.417Z,9.40
2018-07-08T07:09:50.118Z,9.20
2018-07-08T07:12:18.784Z,10.40
2018-07-08T07:14:47.517Z,10.00
2018-07-08T07:17:16.187Z,9.80
2018-07-08T07:19:44.892Z,9.60
2018-07-08T07:22:13.601Z,8.80
2018-07-08T07:24:42.377Z,8.80
2018-07-08T07:27:11.028Z,9.00
2018-07-08T07:29:39.696Z,10.00
2018-07-08T07:32:08.395Z,12.00
2018-07-08T07:34:37.059Z,9.50
2018-07-08T07:37:05.993Z,8.60
2018-07-08T07:39:34.633Z,7.50
2018-07-08T07:42:03.316Z,7.50
2018-07-08T07:44:31.993Z,7.10
2018-07-08T07:47:00.690Z,8.10
2018-07-08T07:49:29.373Z,9.10
2018-07-08T07:51:58.035Z,8.50
2018-07-08T07:54:26.735Z,8.40
2018-07-08T07:56:55.518Z,6.90
2018-07-08T07:59:24.425Z,5.60
2018-07-08T08:01:53.211Z,4.40
2018-07-08T08:04:21.941Z,5.00
2018-07-08T08:06:50.601Z,3.50
2018-07-08T08:09:19.258Z,2.50
2018-07-08T08:11:48.009Z,2.30
2018-07-08T08:14:16.693Z,2.60
2018-07-08T08:16:45.397Z,1.00
2018-07-08T08:19:14.180Z,1.30
2018-07-08T08:21:43.040Z,1.00
2018-07-08T08:24:11.760Z,1.00
2018-07-08T08:26:40.403Z,1.00
2018-07-08T08:29:09.089Z,1.00
2018-07-08T08:31:37.700Z,1.00
2018-07-08T08:35:11.615Z,1.00
2018-07-08T08:37:42.468Z,1.00
2018-07-08T08:40:11.781Z,1.00
2018-07-08T08:42:40.580Z,1.00
2018-07-08T08:45:10.769Z,1.00
2018-07-08T08:47:39.796Z,1.00
2018-07-08T08:50:09.159Z,1.00
2018-07-08T08:52:37.933Z,1.00
2018-07-08T08:55:07.392Z,1.00
2018-07-08T08:57:36.181Z,1.00
2018-07-08T09:00:07.866Z,1.00
2018-07-08T09:02:36.757Z,1.00
2018-07-08T09:05:05.803Z,1.90
2018-07-08T09:07:34.516Z,1.00
2018-07-08T09:10:03.302Z,1.00
2018-07-08T09:12:31.955Z,1.00
2018-07-08T09:15:00.756Z,1.00
2018-07-08T09:17:29.445Z,1.00
2018-07-08T09:19:58.485Z,1.00
2018-07-08T09:22:27.584Z,1.00
2018-07-08T09:24:56.391Z,1.00
2018-07-08T09:27:25.736Z,1.00
2018-07-08T09:29:55.345Z,1.00
2018-07-08T09:32:24.088Z,1.00
2018-07-08T09:34:52.776Z,1.00
2018-07-08T09:37:21.769Z,1.00
2018-07-08T09:39:50.480Z,1.00
2018-07-08T09:42:19.241Z,1.00
2018-07-08T09:44:48.013Z,1.00
2018-07-08T09:47:16.720Z,1.00
2018-07-08T09:49:45.430Z,1.00
2018-07-08T09:52:14.092Z,1.00
2018-07-08T09:54:42.772Z,1.00
2018-07-08T09:57:11.444Z,1.00
2018-07-08T09:59:40.224Z,1.00
2018-07-08T10:02:08.923Z,1.00
2018-07-08T10:04:37.665Z,1.00
2018-07-08T10:07:06.376Z,1.00
2018-07-08T10:09:35.051Z,1.00
2018-07-08T10:12:03.955Z,1.00
2018-07-08T10:14:32.659Z,1.00
2018-07-08T10:17:01.371Z,1.00
2018-07-08T10:19:30.175Z,1.00
2018-07-08T10:21:58.790Z,1.00
2018-07-08T10:24:27.524Z,1.00
2018-07-08T10:27:13.881Z,1.00
2018-07-08T10:29:42.540Z,1.00
2018-07-08T10:32:11.193Z,1.00
2018-07-08T10:34:39.873Z,1.00
2018-07-08T10:37:08.520Z,1.00
2018-07-08T10:39:37.241Z,1.00
2018-07-08T10:42:06.289Z,1.00
2018-07-08T10:44:34.978Z,1.00
2018-07-08T10:47:03.685Z,1.00
2018-07-08T10:49:32.362Z,1.00
2018-07-08T10:52:01.054Z,1.00
2018-07-08T10:54:29.806Z,1.70
2018-07-08T10:56:58.565Z,2.40
2018-07-08T10:59:27.316Z,2.50
2018-07-08T11:01:56.023Z,1.20
2018-07-08T11:04:24.758Z,1.40
2018-07-08T11:06:53.610Z,1.30
2018-07-08T11:09:22.414Z,2.90
2018-07-08T11:11:51.122Z,3.20
2018-07-08T11:14:19.800Z,3.80
2018-07-08T11:16:48.525Z,4.30
2018-07-08T11:19:17.268Z,5.40
2018-07-08T11:21:46.065Z,6.40
2018-07-08T11:24:14.764Z,5.70
2018-07-08T11:26:43.567Z,5.60
2018-07-08T11:29:12.242Z,4.70
2018-07-08T11:31:41.057Z,5.10
2018-07-08T11:34:09.729Z,5.40
2018-07-08T11:36:38.497Z,5.10
2018-07-08T11:39:07.262Z,5.70
2018-07-08T11:41:35.947Z,5.90
2018-07-08T11:44:04.661Z,6.50
2018-07-08T11:46:33.485Z,6.30
2018-07-08T11:49:02.194Z,5.30
2018-07-08T11:51:30.879Z,5.00
2018-07-08T11:53:59.785Z,5.20
2018-07-08T11:56:28.529Z,5.90
2018-07-08T11:58:57.225Z,6.70
2018-07-08T12:01:26.022Z,6.70
2018-07-08T12:03:54.762Z,8.00
2018-07-08T12:06:24.206Z,7.90
2018-07-08T12:08:52.983Z,7.40
2018-07-08T12:11:21.854Z,6.70
2018-07-08T12:13:51.309Z,6.90
2018-07-08T12:16:20.763Z,6.90
2018-07-08T12:18:49.551Z,6.70
2018-07-08T12:21:18.410Z,6.80
2018-07-08T12:23:47.323Z,6.40
2018-07-08T12:26:16.018Z,6.10
2018-07-08T12:28:45.366Z,6.60
2018-07-08T12:31:20.430Z,5.70
2018-07-08T12:33:49.510Z,6.70
2018-07-08T12:36:18.281Z,8.20
2018-07-08T12:38:47.018Z,7.90
2018-07-08T12:41:16.352Z,7.80
2018-07-08T12:43:45.390Z,7.70
2018-07-08T12:46:14.096Z,7.90
2018-07-08T12:48:42.780Z,8.00
2018-07-08T12:51:11.533Z,7.60
2018-07-08T12:53:40.230Z,7.30
2018-07-08T12:56:08.932Z,7.20
2018-07-08T12:58:37.780Z,7.90
2018-07-08T13:01:06.654Z,7.70
2018-07-08T13:03:35.372Z,7.90
2018-07-08T13:06:04.084Z,7.30
2018-07-08T13:08:32.847Z,7.60
2018-07-08T13:11:01.563Z,7.60
2018-07-08T13:13:30.243Z,8.20
2018-07-08T13:15:58.971Z,8.60
2018-07-08T13:18:27.692Z,8.80
2018-07-08T13:20:56.738Z,8.10
2018-07-08T13:23:25.479Z,8.60
2018-07-08T13:25:54.219Z,9.60
2018-07-08T13:28:22.964Z,9.20
2018-07-08T13:30:51.722Z,9.90
2018-07-08T13:33:20.529Z,9.80
2018-07-08T13:35:49.209Z,9.20
2018-07-08T13:38:17.940Z,9.40
2018-07-08T13:40:46.886Z,8.80
2018-07-08T13:43:15.584Z,9.10
2018-07-08T13:45:44.255Z,8.90
2018-07-08T13:48:12.985Z,7.90
2018-07-08T13:50:41.957Z,7.00
2018-07-08T13:53:10.981Z,7.10
2018-07-08T13:55:39.828Z,7.70
2018-07-08T13:58:08.528Z,8.40
2018-07-08T14:00:37.231Z,8.10
2018-07-08T14:03:06.077Z,8.60
2018-07-08T14:05:34.821Z,8.60
2018-07-08T14:08:03.617Z,8.20
2018-07-08T14:10:32.269Z,8.40
2018-07-08T14:13:01.035Z,8.40
2018-07-08T14:15:29.769Z,8.90
2018-07-08T14:17:58.607Z,8.10
2018-07-08T14:20:27.401Z,8.10
2018-07-08T14:22:56.085Z,8.20
2018-07-08T14:25:24.789Z,7.50
2018-07-08T14:27:53.604Z,7.80
2018-07-08T14:30:22.299Z,7.90
2018-07-08T14:32:51.020Z,7.20
2018-07-08T14:35:19.720Z,7.40
2018-07-08T14:37:48.433Z,8.30
2018-07-08T14:40:17.612Z,8.20
2018-07-08T14:42:46.361Z,8.30
2018-07-08T14:45:15.209Z,8.00
2018-07-08T14:47:43.935Z,8.60
2018-07-08T14:50:12.637Z,8.90
2018-07-08T14:52:41.382Z,8.80
2018-07-08T14:55:10.101Z,8.80
2018-07-08T14:57:39.175Z,8.70
2018-07-08T15:00:08.050Z,8.70
2018-07-08T15:02:36.799Z,8.60
2018-07-08T15:05:05.759Z,8.40
2018-07-08T15:07:34.446Z,8.50
2018-07-08T15:10:03.316Z,8.60
2018-07-08T15:12:32.110Z,8.50
2018-07-08T15:15:00.924Z,8.00
2018-07-08T15:17:29.831Z,7.90
2018-07-08T15:19:58.741Z,8.20
2018-07-08T15:22:27.816Z,8.10
2018-07-08T15:24:56.684Z,8.00
2018-07-08T15:27:25.391Z,8.20
2018-07-08T15:29:54.137Z,8.20
2018-07-08T15:32:22.925Z,8.10
2018-07-08T15:34:51.981Z,7.70
2018-07-08T15:37:20.744Z,8.30
2018-07-08T15:39:49.405Z,8.10
2018-07-08T15:42:18.402Z,8.30
2018-07-08T15:44:47.222Z,8.40
2018-07-08T15:47:16.052Z,8.70
2018-07-08T15:49:44.760Z,8.90
2018-07-08T15:52:13.430Z,9.60
2018-07-08T15:54:42.133Z,9.50
2018-07-08T15:57:11.150Z,9.10
2018-07-08T15:59:39.892Z,9.20
2018-07-08T16:02:08.596Z,9.90
2018-07-08T16:04:37.371Z,9.80
2018-07-08T16:07:06.225Z,10.90
2018-07-08T16:09:34.936Z,10.70
2018-07-08T16:12:05.096Z,10.40
2018-07-08T16:14:34.017Z,10.60
2018-07-08T16:17:02.800Z,10.30
2018-07-08T16:19:31.528Z,10.80
2018-07-08T16:22:00.292Z,11.30
2018-07-08T16:24:29.023Z,11.00
2018-07-08T16:26:57.799Z,10.50
2018-07-08T16:29:26.633Z,11.20
2018-07-08T16:31:55.315Z,10.80
2018-07-08T16:34:24.112Z,12.30
2018-07-08T16:36:52.856Z,11.20
2018-07-08T16:41:49.916Z,11.90
2018-07-08T16:44:18.642Z,11.30
2018-07-08T16:46:47.588Z,11.70
2018-07-08T16:49:16.398Z,11.30
2018-07-08T16:51:45.279Z,10.80
2018-07-08T16:54:14.017Z,10.10
2018-07-08T16:56:42.851Z,10.40
2018-07-08T16:59:11.669Z,11.20
2018-07-08T17:01:40.426Z,11.90
2018-07-08T17:04:09.178Z,11.60
2018-07-08T17:06:37.902Z,11.30
2018-07-08T17:09:08.051Z,11.60
2018-07-08T17:11:37.186Z,12.00
2018-07-08T17:14:07.708Z,11.60
2018-07-08T17:16:36.500Z,11.50
2018-07-08T17:19:05.712Z,11.10
2018-07-08T17:21:34.405Z,11.50
2018-07-08T17:24:03.165Z,11.50
2018-07-08T17:26:32.128Z,10.90
2018-07-08T17:29:00.808Z,10.10
2018-07-08T17:31:29.660Z,10.60
2018-07-08T17:33:58.440Z,11.10
2018-07-08T17:36:27.262Z,10.40
2018-07-08T17:38:55.997Z,10.60
2018-07-08T17:41:24.778Z,10.70
2018-07-08T17:43:53.484Z,10.80
2018-07-08T17:46:22.484Z,10.80
2018-07-08T17:48:51.690Z,11.50
2018-07-08T17:51:20.417Z,11.50
2018-07-08T17:53:49.153Z,11.50
2018-07-08T17:56:17.909Z,12.00
2018-07-08T17:58:46.782Z,12.40
2018-07-08T18:01:16.914Z,12.60
2018-07-08T18:03:46.168Z,12.40
2018-07-08T18:06:14.901Z,13.30
2018-07-08T18:08:43.626Z,13.50
2018-07-08T18:11:13.174Z,13.40
2018-07-08T18:13:42.011Z,13.90
2018-07-08T18:16:10.753Z,13.60
2018-07-08T18:18:39.579Z,13.60
2018-07-08T18:21:08.401Z,13.80
2018-07-08T18:23:37.232Z,13.80
2018-07-08T18:26:05.914Z,14.20
2018-07-08T18:28:34.661Z,14.10
2018-07-08T18:31:03.543Z,14.90
2018-07-08T18:33:32.289Z,14.70
2018-07-08T18:36:01.030Z,14.80
2018-07-08T18:38:29.768Z,15.40
2018-07-08T18:40:58.673Z,15.30
2018-07-08T18:43:27.424Z,15.20
2018-07-08T18:45:56.191Z,15.30
2018-07-08T18:48:25.310Z,15.50
2018-07-08T18:50:54.098Z,16.40
2018-07-08T18:53:22.959Z,16.50
2018-07-08T18:55:52.153Z,17.10
2018-07-08T18:58:20.917Z,16.50
2018-07-08T19:00:49.758Z,16.60
2018-07-08T19:03:18.518Z,17.10
2018-07-08T19:05:47.250Z,17.10
2018-07-08T19:08:15.990Z,17.50
2018-07-08T19:10:44.809Z,17.40
2018-07-08T19:13:13.546Z,18.00
2018-07-08T19:15:42.454Z,17.90
2018-07-08T19:18:11.159Z,18.30
2018-07-08T19:20:40.335Z,18.20
2018-07-08T19:23:09.482Z,18.40
2018-07-08T19:25:38.183Z,18.70
2018-07-08T19:28:06.981Z,18.90
2018-07-08T19:30:35.783Z,18.80
2018-07-08T19:33:04.541Z,19.10
2018-07-08T19:35:33.293Z,19.50
2018-07-08T19:38:02.027Z,19.40
2018-07-08T19:40:30.856Z,19.90
2018-07-08T19:42:59.557Z,19.50
2018-07-08T19:45:28.298Z,19.70
2018-07-08T19:47:57.038Z,19.50
2018-07-08T19:50:25.736Z,19.60
2018-07-08T19:52:54.850Z,19.50
2018-07-08T19:55:23.626Z,19.20
2018-07-08T19:57:52.488Z,19.60
2018-07-08T20:00:21.549Z,19.30
2018-07-08T20:02:50.376Z,19.30
2018-07-08T20:05:19.322Z,19.50
2018-07-08T20:07:48.602Z,19.30
2018-07-08T20:10:17.296Z,19.40
2018-07-08T20:12:46.080Z,19.40
2018-07-08T20:15:14.914Z,19.10
2018-07-08T20:17:43.786Z,19.10
2018-07-08T20:20:12.669Z,18.60
2018-07-08T20:22:41.575Z,18.80
2018-07-08T20:25:11.002Z,19.30
2018-07-08T20:27:40.609Z,19.10
2018-07-08T20:30:09.896Z,19.20
2018-07-08T20:32:38.732Z,19.30
2018-07-08T20:35:07.750Z,19.30
2018-07-08T20:37:36.292Z,19.70
2018-07-08T20:40:05.026Z,19.90
2018-07-08T20:45:02.457Z,20.00
2018-07-08T20:47:31.403Z,20.40
2018-07-08T20:50:00.304Z,20.50
2018-07-08T20:52:29.485Z,20.80
2018-07-08T20:54:58.445Z,21.00
2018-07-08T20:57:27.421Z,21.30
2018-07-08T20:59:56.483Z,21.70
2018-07-08T21:02:25.177Z,22.10
2018-07-08T21:04:54.245Z,22.50
2018-07-08T21:07:23.056Z,23.10
2018-07-08T21:09:51.946Z,23.30
2018-07-08T21:12:20.673Z,24.90
2018-07-08T21:14:49.649Z,25.00
2018-07-08T21:17:18.465Z,25.10
2018-07-08T21:19:47.376Z,25.60
2018-07-08T21:22:16.188Z,25.80
2018-07-08T21:24:47.225Z,26.30
2018-07-08T21:27:16.104Z,26.40
2018-07-08T21:29:45.753Z,27.30
2018-07-08T21:32:15.963Z,27.20
2018-07-08T21:34:44.838Z,27.20
2018-07-08T21:37:13.822Z,27.70
2018-07-08T21:39:43.849Z,27.50
2018-07-08T21:42:13.063Z,28.30
2018-07-08T21:44:41.979Z,28.50
2018-07-08T21:47:10.895Z,28.30
2018-07-08T21:49:39.886Z,28.20
2018-07-08T21:52:08.674Z,28.30
2018-07-08T21:54:37.689Z,28.40
2018-07-08T21:57:06.659Z,28.60
2018-07-08T21:59:35.361Z,28.40
2018-07-08T22:02:07.184Z,28.60
2018-07-08T22:04:36.723Z,28.40
2018-07-08T22:07:10.794Z,28.90
2018-07-08T22:09:39.911Z,28.90
2018-07-08T22:12:09.109Z,29.00
2018-07-08T22:14:37.974Z,29.00
2018-07-08T22:17:06.788Z,29.40
2018-07-08T22:19:35.881Z,29.50
2018-07-08T22:22:05.229Z,29.40
2018-07-08T22:24:34.705Z,29.60
2018-07-08T22:27:03.782Z,29.40
2018-07-08T22:29:32.755Z,29.70
2018-07-08T22:32:01.581Z,30.00
2018-07-08T22:34:30.294Z,30.20
2018-07-08T22:36:59.131Z,29.70
2018-07-08T22:39:27.956Z,29.80
2018-07-08T22:41:57.207Z,29.60
2018-07-08T22:44:26.007Z,29.80
2018-07-08T22:46:54.707Z,30.00
2018-07-08T22:49:26.011Z,30.60
2018-07-08T22:51:55.243Z,30.30
2018-07-08T22:54:23.987Z,30.00
2018-07-08T22:56:52.811Z,30.20
2018-07-08T22:59:21.559Z,30.50
2018-07-08T23:02:01.446Z,30.90
2018-07-08T23:04:30.316Z,30.90
2018-07-08T23:06:59.025Z,31.00
2018-07-08T23:09:28.585Z,31.20
2018-07-08T23:11:57.474Z,31.80
2018-07-08T23:14:26.356Z,31.50
2018-07-08T23:16:55.209Z,31.10
2018-07-08T23:19:30.461Z,31.40
2018-07-08T23:21:59.423Z,31.80
2018-07-08T23:24:28.187Z,31.40
2018-07-08T23:26:56.908Z,31.50
2018-07-08T23:29:25.651Z,31.70
2018-07-08T23:31:54.400Z,32.20
2018-07-08T23:34:23.226Z,34.40
2018-07-08T23:36:51.984Z,34.70
2018-07-08T23:39:20.714Z,34.20
2018-07-08T23:41:49.469Z,36.50
2018-07-08T23:44:18.221Z,38.10
2018-07-08T23:46:46.908Z,40.60
2018-07-08T23:49:15.672Z,41.90
2018-07-08T23:51:44.468Z,44.00
2018-07-08T23:54:13.177Z,49.10
2018-07-08T23:56:41.930Z,53.70
2018-07-08T23:59:10.680Z,52.90
